Time;durP1;ratioP1;P1;durP2;ratioP2;P2;SDS_P1;SDS_P2;PMS_P1;PMS_P2;Temp;Humidity;BMP_temperature;BMP_pressure;BME280_temperature;BME280_humidity;BME280_pressure;Samples;Min_cycle;Max_cycle;Signal;HPM_P1;HPM_P2
2023/01/12 00:02:08;;;;;;;5.70;2.83;;;11.50;58.60;;;;;;5050680;28;20450;-86
2023/01/12 00:04:35;;;;;;;8.27;4.13;;;11.40;59.10;;;;;;5064885;28;20504;-88
2023/01/12 00:07:02;;;;;;;5.77;3.00;;;11.40;59.10;;;;;;5072140;28;21143;-87
2023/01/12 00:09:29;;;;;;;5.77;2.60;;;11.20;59.50;;;;;;5081886;28;20548;-87
2023/01/12 00:11:56;;;;;;;7.30;2.60;;;11.20;59.50;;;;;;5056451;28;20450;-87
2023/01/12 00:14:25;;;;;;;8.93;2.03;;;11.30;59.30;;;;;;5082434;28;20451;-87
2023/01/12 00:16:51;;;;;;;6.13;2.00;;;11.50;59.00;;;;;;5053764;28;20469;-87
2023/01/12 00:19:20;;;;;;;3.40;1.87;;;11.60;58.70;;;;;;5062559;28;20562;-88
2023/01/12 00:22:01;;;;;;;3.03;1.90;;;11.50;59.00;;;;;;5053656;28;21031;-87
2023/01/12 00:24:29;;;;;;;4.30;2.10;;;11.70;58.60;;;;;;5050470;28;20442;-86
2023/01/12 00:26:59;;;;;;;5.90;2.00;;;11.70;58.40;;;;;;5074195;28;20958;-87
2023/01/12 00:29:28;;;;;;;6.33;2.20;;;11.60;58.60;;;;;;5056310;27;20467;-87
2023/01/12 00:31:57;;;;;;;6.63;2.40;;;11.50;59.00;;;;;;5093186;28;20895;-88
2023/01/12 00:34:24;;;;;;;4.73;1.50;;;11.70;58.60;;;;;;5051857;28;20447;-85
2023/01/12 00:36:51;;;;;;;3.87;1.50;;;11.80;58.80;;;;;;5071854;28;20558;-85
2023/01/12 00:39:19;;;;;;;9.63;1.83;;;11.80;58.30;;;;;;5073588;27;20459;-87
2023/01/12 00:47:18;;;;;;;5.20;2.10;;;11.40;59.10;;;;;;5055651;28;20430;-88
2023/01/12 00:49:45;;;;;;;4.00;1.53;;;11.30;59.30;;;;;;5089535;28;20524;-87
2023/01/12 00:52:14;;;;;;;7.03;2.37;;;11.50;59.00;;;;;;5065523;27;20792;-87
2023/01/12 00:54:41;;;;;;;7.20;1.93;;;11.60;59.00;;;;;;5088884;28;20983;-88
2023/01/12 00:57:09;;;;;;;8.60;2.10;;;11.40;58.50;;;;;;5108724;27;20453;-86
2023/01/12 00:59:37;;;;;;;8.47;2.23;;;11.30;58.90;;;;;;5072218;27;20481;-87
2023/01/12 01:02:05;;;;;;;2.90;1.90;;;11.30;59.40;;;;;;5073118;28;21176;-85
2023/01/12 01:04:33;;;;;;;7.13;1.80;;;11.40;59.40;;;;;;5072174;28;20438;-87
2023/01/12 01:07:00;;;;;;;5.63;1.83;;;11.50;58.90;;;;;;5072226;28;20474;-87
2023/01/12 01:09:27;;;;;;;5.63;1.50;;;11.30;59.20;;;;;;5086134;28;20470;-87
2023/01/12 01:11:54;;;;;;;8.30;1.60;;;11.50;59.40;;;;;;5052518;28;20489;-87
2023/01/12 01:14:21;;;;;;;8.33;1.50;;;11.50;58.60;;;;;;5065533;27;20444;-86
2023/01/12 01:16:50;;;;;;;2.50;1.40;;;11.50;58.80;;;;;;5072799;28;20447;-87
2023/01/12 01:19:17;;;;;;;14.83;2.50;;;11.50;59.00;;;;;;5072872;28;20477;-88
2023/01/12 01:21:44;;;;;;;13.90;2.23;;;11.70;58.60;;;;;;5087588;28;20462;-87
2023/01/12 01:24:12;;;;;;;3.10;1.40;;;11.70;58.20;;;;;;5055890;28;20439;-87
2023/01/12 01:26:40;;;;;;;11.43;2.30;;;11.40;58.60;;;;;;5071015;28;20952;-87
2023/01/12 01:29:07;;;;;;;3.20;1.50;;;11.60;58.50;;;;;;5072568;28;20466;-87
2023/01/12 01:31:35;;;;;;;7.10;2.00;;;11.40;58.50;;;;;;5053923;28;20451;-87
2023/01/12 01:34:03;;;;;;;6.80;2.37;;;11.50;58.70;;;;;;5089042;28;20509;-87
2023/01/12 01:36:30;;;;;;;8.37;2.10;;;11.60;58.80;;;;;;5057239;28;20434;-87
2023/01/12 01:38:57;;;;;;;5.10;2.27;;;11.70;58.30;;;;;;5068889;28;20549;-85
2023/01/12 01:41:26;;;;;;;4.67;1.93;;;11.50;58.50;;;;;;5072020;27;20477;-85
2023/01/12 01:43:59;;;;;;;2.20;1.63;;;11.50;58.60;;;;;;5073693;28;20482;-88
2023/01/12 01:46:42;;;;;;;6.07;2.00;;;11.50;58.80;;;;;;5068347;27;20443;-85
2023/01/12 01:49:24;;;;;;;7.23;1.70;;;11.80;58.40;;;;;;5101436;28;20490;-87
2023/01/12 01:51:53;;;;;;;6.43;2.57;;;11.70;58.20;;;;;;5083225;28;20522;-86
2023/01/12 01:54:21;;;;;;;7.40;1.73;;;11.60;58.90;;;;;;5072256;28;21202;-87
2023/01/12 01:56:50;;;;;;;6.00;2.37;;;11.80;58.20;;;;;;5071660;28;20443;-87
2023/01/12 01:59:22;;;;;;;5.93;2.00;;;11.90;58.10;;;;;;5073024;28;20463;-87
2023/01/12 02:01:49;;;;;;;4.80;1.53;;;11.80;57.80;;;;;;5054412;28;20455;-87
2023/01/12 02:04:18;;;;;;;2.20;1.40;;;11.90;57.90;;;;;;5064502;28;20808;-87
2023/01/12 02:06:45;;;;;;;10.50;2.27;;;11.70;58.40;;;;;;5086110;28;20458;-87
2023/01/12 02:09:16;;;;;;;11.50;1.90;;;11.80;58.30;;;;;;5075861;28;20542;-87
2023/01/12 02:17:29;;;;;;;9.03;2.07;;;11.60;59.10;;;;;;5073973;28;20474;-87
2023/01/12 02:20:38;;;;;;;5.73;1.77;;;11.40;59.30;;;;;;5073342;28;20469;-87
2023/01/12 02:23:39;;;;;;;9.83;1.77;;;11.30;60.20;;;;;;5065947;28;20467;-87
2023/01/12 02:26:35;;;;;;;7.27;2.30;;;11.10;60.80;;;;;;5056096;28;20839;-87
2023/01/12 02:29:35;;;;;;;11.60;3.00;;;11.40;60.30;;;;;;5047381;28;20565;-87
2023/01/12 02:32:11;;;;;;;15.30;4.80;;;11.40;59.90;;;;;;5073939;28;20435;-87
2023/01/12 02:34:48;;;;;;;23.37;8.90;;;11.50;59.70;;;;;;5068807;27;20480;-86
2023/01/12 02:37:25;;;;;;;15.00;4.80;;;11.80;59.30;;;;;;5080623;28;20446;-87
2023/01/12 02:39:58;;;;;;;20.10;6.37;;;11.80;58.80;;;;;;5054453;28;20464;-87
2023/01/12 02:42:41;;;;;;;13.23;5.90;;;11.70;59.10;;;;;;5086569;28;20520;-86
2023/01/12 02:45:18;;;;;;;13.47;2.00;;;11.80;59.30;;;;;;5070232;28;20559;-86
2023/01/12 02:47:51;;;;;;;12.40;2.90;;;11.70;59.50;;;;;;5069916;28;20458;-87
2023/01/12 02:50:23;;;;;;;34.77;13.00;;;11.70;59.30;;;;;;5070455;28;20533;-86
2023/01/12 02:52:56;;;;;;;8.00;4.67;;;11.90;59.00;;;;;;5087011;28;20481;-87
2023/01/12 02:55:26;;;;;;;10.60;5.53;;;12.00;58.60;;;;;;5087632;27;20449;-87
2023/01/12 02:57:54;;;;;;;10.00;3.30;;;12.00;58.60;;;;;;5064471;28;20435;-88
2023/01/12 03:00:22;;;;;;;14.03;5.47;;;12.10;58.30;;;;;;5054460;28;20472;-87
2023/01/12 03:02:50;;;;;;;12.57;6.40;;;12.10;58.10;;;;;;5088070;28;20467;-87
2023/01/12 03:05:26;;;;;;;9.73;3.03;;;12.10;58.40;;;;;;5082916;28;20829;-86
2023/01/12 03:07:55;;;;;;;6.93;2.10;;;12.00;58.10;;;;;;5053821;28;20443;-86
2023/01/12 03:10:55;;;;;;;9.63;3.40;;;11.80;58.30;;;;;;5053406;28;20486;-85
2023/01/12 03:13:25;;;;;;;12.93;2.70;;;11.80;58.70;;;;;;5075506;27;20435;-86
2023/01/12 03:15:55;;;;;;;15.47;2.77;;;11.60;58.90;;;;;;5054830;28;20529;-86
2023/01/12 03:18:30;;;;;;;7.00;2.07;;;11.70;58.90;;;;;;5065800;28;20530;-85
2023/01/12 03:21:02;;;;;;;6.30;1.90;;;11.70;58.80;;;;;;5070228;28;20444;-87
2023/01/12 03:23:33;;;;;;;11.43;1.77;;;11.70;58.60;;;;;;5068448;28;20454;-86
2023/01/12 03:26:02;;;;;;;5.27;1.97;;;11.60;59.00;;;;;;5089975;28;20464;-88
2023/01/12 03:28:34;;;;;;;4.50;1.57;;;11.50;59.00;;;;;;5056192;28;20474;-86
2023/01/12 03:31:07;;;;;;;5.60;1.73;;;11.80;58.90;;;;;;5067583;28;20482;-86
2023/01/12 03:33:36;;;;;;;6.77;1.40;;;11.80;58.80;;;;;;5066883;28;21308;-87
2023/01/12 03:36:13;;;;;;;7.83;2.23;;;11.90;58.20;;;;;;5063040;28;20921;-87
2023/01/12 03:38:49;;;;;;;7.80;1.70;;;11.80;59.20;;;;;;5052546;28;20529;-86
2023/01/12 03:41:28;;;;;;;5.53;1.80;;;12.00;58.20;;;;;;5069931;28;20943;-86
2023/01/12 03:44:01;;;;;;;12.03;2.00;;;11.90;58.30;;;;;;5070908;28;20494;-87
2023/01/12 03:46:30;;;;;;;8.80;1.90;;;11.90;58.20;;;;;;5051263;27;20447;-85
2023/01/12 03:49:05;;;;;;;4.40;1.80;;;11.80;58.80;;;;;;5088014;28;20467;-86
2023/01/12 03:51:37;;;;;;;7.60;1.70;;;12.00;58.70;;;;;;5070773;27;20442;-87
2023/01/12 03:54:07;;;;;;;8.30;2.20;;;11.90;58.30;;;;;;5080671;28;20448;-87
2023/01/12 03:56:37;;;;;;;7.43;1.87;;;11.90;58.60;;;;;;5074955;28;20443;-86
2023/01/12 03:59:04;;;;;;;4.37;2.27;;;11.90;58.40;;;;;;5074689;28;21007;-86
2023/01/12 04:01:32;;;;;;;1.80;1.30;;;12.00;58.90;;;;;;5098520;28;20435;-87
2023/01/12 04:04:00;;;;;;;7.80;1.63;;;12.10;58.40;;;;;;5056364;28;21000;-86
2023/01/12 04:06:27;;;;;;;6.83;2.37;;;12.20;57.90;;;;;;5055437;28;20439;-87
2023/01/12 04:08:54;;;;;;;6.97;1.80;;;12.20;58.00;;;;;;5071483;28;20477;-87
2023/01/12 04:14:06;;;;;;;11.90;5.53;;;11.90;59.00;;;;;;5063894;28;20439;-87
2023/01/12 04:16:33;;;;;;;12.93;6.07;;;11.80;58.90;;;;;;5065054;28;20489;-87
2023/01/12 04:19:01;;;;;;;6.77;2.93;;;11.90;58.80;;;;;;5074165;28;20470;-86
2023/01/12 04:24:12;;;;;;;10.47;2.10;;;11.90;58.90;;;;;;5079422;28;20477;-86
2023/01/12 04:26:39;;;;;;;12.10;3.10;;;11.70;59.10;;;;;;5072668;27;20525;-86
2023/01/12 04:29:06;;;;;;;7.60;2.90;;;11.80;59.40;;;;;;5074275;28;20459;-87
2023/01/12 04:31:33;;;;;;;9.80;2.07;;;11.80;58.80;;;;;;5069004;28;20443;-87
2023/01/12 04:34:01;;;;;;;5.00;2.37;;;11.70;59.40;;;;;;5085865;28;20455;-88
2023/01/12 04:36:28;;;;;;;8.30;2.37;;;11.90;59.00;;;;;;5052958;28;20570;-86
2023/01/12 04:38:55;;;;;;;9.07;3.33;;;12.10;58.80;;;;;;5064138;28;20486;-87
2023/01/12 04:41:22;;;;;;;6.87;3.10;;;12.00;58.10;;;;;;5057626;28;20457;-86
2023/01/12 04:43:49;;;;;;;8.93;2.00;;;12.00;58.00;;;;;;5071602;27;20487;-85
2023/01/12 04:46:16;;;;;;;7.23;2.63;;;12.00;58.90;;;;;;5054614;28;20460;-87
2023/01/12 04:48:44;;;;;;;23.40;12.63;;;11.90;58.90;;;;;;5074163;28;20951;-87
2023/01/12 04:51:12;;;;;;;15.77;10.83;;;12.00;58.80;;;;;;5075051;28;20443;-87
2023/01/12 04:53:39;;;;;;;8.20;3.20;;;12.20;58.60;;;;;;5070474;28;20439;-87
2023/01/12 04:56:08;;;;;;;10.77;3.90;;;12.00;58.50;;;;;;5069417;28;20455;-87
2023/01/12 04:58:35;;;;;;;5.80;2.30;;;12.00;58.70;;;;;;5083894;27;20581;-86
2023/01/12 05:01:08;;;;;;;7.53;2.50;;;12.00;59.10;;;;;;5089108;28;20455;-84
2023/01/12 05:03:35;;;;;;;4.07;1.70;;;12.20;58.40;;;;;;5041951;28;20849;-87
2023/01/12 05:06:02;;;;;;;4.37;2.00;;;12.20;57.80;;;;;;5083956;28;20965;-87
2023/01/12 05:11:15;;;;;;;6.20;2.20;;;12.10;58.30;;;;;;5063625;28;20450;-85
2023/01/12 05:13:42;;;;;;;7.83;1.90;;;11.90;58.90;;;;;;5068427;28;20447;-86
2023/01/12 05:16:11;;;;;;;4.27;2.30;;;12.00;58.80;;;;;;5069509;28;20453;-87
2023/01/12 05:18:38;;;;;;;7.67;1.93;;;12.20;58.30;;;;;;5056013;28;20443;-85
2023/01/12 05:21:05;;;;;;;10.37;2.57;;;12.00;58.10;;;;;;5070435;28;20450;-87
2023/01/12 05:23:34;;;;;;;3.73;1.57;;;11.90;59.50;;;;;;5079829;27;20459;-87
2023/01/12 05:26:01;;;;;;;4.10;2.10;;;12.00;58.70;;;;;;5084314;28;20454;-87
2023/01/12 05:28:29;;;;;;;8.57;2.00;;;12.10;58.80;;;;;;5066634;28;20449;-86
2023/01/12 05:31:02;;;;;;;7.93;1.73;;;12.10;58.70;;;;;;5053686;28;20447;-87
2023/01/12 05:33:29;;;;;;;8.20;2.20;;;12.00;59.00;;;;;;5047046;28;20444;-85
2023/01/12 05:35:56;;;;;;;7.13;2.00;;;12.10;58.70;;;;;;5070380;28;20508;-87
2023/01/12 05:38:23;;;;;;;3.63;1.50;;;12.20;58.60;;;;;;5045872;28;20455;-86
2023/01/12 05:40:51;;;;;;;4.50;1.60;;;11.90;58.80;;;;;;5050949;28;21060;-86
2023/01/12 05:46:03;;;;;;;3.23;1.60;;;11.90;58.90;;;;;;5068763;28;20431;-87
2023/01/12 05:48:31;;;;;;;7.80;2.30;;;11.90;59.30;;;;;;5072703;28;20939;-87
2023/01/12 05:51:00;;;;;;;10.10;2.13;;;11.90;58.60;;;;;;5055595;28;20455;-87
2023/01/12 05:53:27;;;;;;;7.63;2.17;;;11.90;59.60;;;;;;5069172;28;20813;-86
2023/01/12 05:55:55;;;;;;;5.40;2.10;;;11.80;59.20;;;;;;5072520;28;20446;-86
2023/01/12 05:58:23;;;;;;;9.00;2.50;;;11.60;59.70;;;;;;5069628;28;20447;-86
2023/01/12 06:00:50;;;;;;;7.23;1.97;;;11.70;59.90;;;;;;5071510;28;20917;-87
2023/01/12 06:03:17;;;;;;;6.20;2.00;;;11.50;60.20;;;;;;5085222;28;20505;-87
2023/01/12 06:05:44;;;;;;;9.97;2.90;;;11.70;60.50;;;;;;5066245;28;21010;-87
2023/01/12 06:08:11;;;;;;;10.13;2.40;;;11.90;59.80;;;;;;5052491;28;20459;-86
2023/01/12 06:10:39;;;;;;;11.17;1.90;;;11.60;59.70;;;;;;5050248;28;20473;-87
2023/01/12 06:15:53;;;;;;;11.70;4.40;;;11.90;59.60;;;;;;5052605;27;20995;-86
2023/01/12 06:18:21;;;;;;;8.43;4.83;;;11.90;58.80;;;;;;5063450;28;20490;-87
2023/01/12 06:20:48;;;;;;;8.53;3.30;;;11.70;58.90;;;;;;5084368;28;20471;-87
2023/01/12 06:23:15;;;;;;;7.63;2.10;;;11.60;59.80;;;;;;5064437;28;20466;-86
2023/01/12 06:25:42;;;;;;;6.47;2.10;;;11.60;60.20;;;;;;5066713;28;20465;-86
2023/01/12 06:28:12;;;;;;;4.87;1.80;;;11.70;59.90;;;;;;5061885;28;20446;-87
2023/01/12 06:30:39;;;;;;;8.30;2.87;;;11.90;59.30;;;;;;5083684;28;20516;-87
2023/01/12 06:33:06;;;;;;;5.80;2.10;;;12.10;59.70;;;;;;5052621;28;20435;-87
2023/01/12 06:35:33;;;;;;;7.10;1.60;;;12.10;58.90;;;;;;5068127;28;20575;-88
2023/01/12 06:38:00;;;;;;;6.20;2.50;;;11.80;58.70;;;;;;5083282;28;20439;-86
2023/01/12 06:40:27;;;;;;;10.67;2.50;;;11.90;59.00;;;;;;5064578;28;20462;-87
2023/01/12 06:42:53;;;;;;;5.30;2.00;;;11.80;59.20;;;;;;5101596;28;20868;-86
2023/01/12 06:45:21;;;;;;;4.23;2.87;;;12.10;59.30;;;;;;5066469;28;20454;-87
2023/01/12 06:47:50;;;;;;;10.63;5.00;;;12.10;59.00;;;;;;5048705;28;21020;-87
2023/01/12 06:50:17;;;;;;;4.70;2.97;;;12.00;59.20;;;;;;5058728;28;20490;-87
2023/01/12 06:52:44;;;;;;;5.03;2.13;;;11.90;59.20;;;;;;5049215;27;20444;-87
2023/01/12 06:55:11;;;;;;;3.97;1.80;;;11.90;59.30;;;;;;5051500;28;20454;-87
2023/01/12 06:57:38;;;;;;;4.90;2.30;;;11.80;59.20;;;;;;5042353;27;20466;-87
2023/01/12 07:00:07;;;;;;;5.47;2.10;;;11.80;59.40;;;;;;5086287;28;20454;-85
2023/01/12 07:02:35;;;;;;;9.53;4.40;;;12.10;59.20;;;;;;5085331;28;20477;-86
2023/01/12 07:05:02;;;;;;;7.23;3.23;;;12.30;59.00;;;;;;5063630;28;20469;-87
2023/01/12 07:07:29;;;;;;;7.30;2.33;;;12.20;58.60;;;;;;5049317;28;20434;-86
2023/01/12 07:09:56;;;;;;;15.00;5.17;;;11.90;59.10;;;;;;5081121;28;20469;-86
2023/01/12 07:12:23;;;;;;;20.60;7.00;;;12.20;59.10;;;;;;5066699;28;20529;-86
2023/01/12 07:14:50;;;;;;;17.23;7.20;;;12.10;59.00;;;;;;5064579;28;20443;-85
2023/01/12 07:17:17;;;;;;;6.73;2.40;;;12.20;59.10;;;;;;5091039;28;20821;-86
2023/01/12 07:19:46;;;;;;;9.70;2.47;;;12.10;59.20;;;;;;5066403;28;20478;-86
2023/01/12 07:22:13;;;;;;;4.77;2.20;;;12.00;59.50;;;;;;5063179;28;20453;-87
2023/01/12 07:24:39;;;;;;;4.23;2.20;;;11.90;59.20;;;;;;5081096;28;20980;-87
2023/01/12 07:27:06;;;;;;;10.87;2.80;;;12.10;59.70;;;;;;5051227;28;20451;-87
2023/01/12 07:29:34;;;;;;;7.27;4.30;;;12.00;59.40;;;;;;5083686;28;20470;-86
2023/01/12 07:32:01;;;;;;;10.27;3.43;;;12.10;59.70;;;;;;5084538;28;20482;-86
2023/01/12 07:34:28;;;;;;;6.63;2.40;;;12.30;59.20;;;;;;5067479;28;20480;-85
2023/01/12 07:36:57;;;;;;;7.03;2.17;;;12.40;58.90;;;;;;5054300;28;20476;-86
2023/01/12 07:39:24;;;;;;;6.60;3.43;;;12.10;59.00;;;;;;5086137;28;20499;-87
2023/01/12 07:44:36;;;;;;;7.37;1.83;;;12.10;60.00;;;;;;5068510;28;20905;-85
2023/01/12 07:47:03;;;;;;;2.67;1.60;;;12.10;60.10;;;;;;5103336;28;20435;-86
2023/01/12 07:49:30;;;;;;;5.17;2.03;;;12.30;59.90;;;;;;5071456;28;21007;-86
2023/01/12 07:51:58;;;;;;;3.13;1.90;;;12.20;60.30;;;;;;5085910;28;20449;-88
2023/01/12 07:54:25;;;;;;;10.77;2.10;;;11.90;60.80;;;;;;5052701;28;20538;-85
2023/01/12 07:56:52;;;;;;;3.43;2.83;;;11.80;61.70;;;;;;5047336;28;20467;-87
2023/01/12 07:59:19;;;;;;;5.07;2.47;;;11.90;61.80;;;;;;5082512;28;20467;-85
2023/01/12 08:01:46;;;;;;;4.30;2.13;;;11.90;61.40;;;;;;5050685;28;20465;-87
2023/01/12 08:04:13;;;;;;;4.13;2.27;;;12.00;61.60;;;;;;5070073;28;20550;-87
2023/01/12 08:06:40;;;;;;;6.03;2.93;;;11.90;60.90;;;;;;5067277;28;20460;-87
2023/01/12 08:09:09;;;;;;;4.50;2.53;;;11.70;61.90;;;;;;5055042;28;20508;-87
2023/01/12 08:11:37;;;;;;;9.37;5.00;;;11.70;62.30;;;;;;5072215;28;20474;-86
2023/01/12 08:14:04;;;;;;;4.53;2.60;;;11.90;62.40;;;;;;5070592;28;20997;-87
2023/01/12 08:16:38;;;;;;;6.97;3.00;;;11.90;61.50;;;;;;5087314;28;20956;-88
2023/01/12 08:19:08;;;;;;;6.83;6.03;;;12.00;61.30;;;;;;5063288;28;21050;-87
2023/01/12 08:21:43;;;;;;;8.47;2.10;;;11.80;61.40;;;;;;5067475;28;20467;-86
2023/01/12 08:24:15;;;;;;;4.27;1.80;;;11.70;61.50;;;;;;5052438;28;20538;-87
2023/01/12 08:26:45;;;;;;;4.37;1.70;;;11.70;61.10;;;;;;5046323;28;20475;-88
2023/01/12 08:29:16;;;;;;;6.03;2.00;;;11.90;61.30;;;;;;5067927;28;21077;-87
2023/01/12 08:31:43;;;;;;;5.67;1.80;;;11.90;62.00;;;;;;5050775;28;20868;-87
2023/01/12 08:34:10;;;;;;;10.30;4.43;;;12.00;61.70;;;;;;5086096;28;20450;-87
2023/01/12 08:36:40;;;;;;;2.90;1.50;;;11.90;60.90;;;;;;5084068;28;20443;-85
2023/01/12 08:39:07;;;;;;;6.37;2.50;;;11.90;61.80;;;;;;5088274;28;20466;-87
2023/01/12 08:41:36;;;;;;;2.43;1.57;;;12.00;62.40;;;;;;5069240;28;20440;-86
2023/01/12 08:44:08;;;;;;;4.63;1.73;;;12.00;61.70;;;;;;5065635;28;21174;-87
2023/01/12 08:50:41;;;;;;;22.47;5.80;;;11.90;62.60;;;;;;5075030;28;20526;-87
2023/01/12 08:53:10;;;;;;;7.70;3.40;;;12.20;61.20;;;;;;5069659;28;20450;-88
2023/01/12 08:55:37;;;;;;;17.43;7.57;;;12.30;60.80;;;;;;5071294;28;20441;-85
2023/01/12 08:58:05;;;;;;;19.40;8.00;;;12.20;62.40;;;;;;5072994;27;20457;-88
2023/01/12 09:00:32;;;;;;;27.23;11.17;;;12.20;62.20;;;;;;5055199;28;20979;-87
2023/01/12 09:03:01;;;;;;;5.10;1.97;;;12.10;62.40;;;;;;5073581;28;20461;-87
2023/01/12 09:05:28;;;;;;;3.67;2.60;;;12.10;62.30;;;;;;5089043;28;20474;-88
2023/01/12 09:07:55;;;;;;;10.57;4.70;;;12.10;62.00;;;;;;5089926;27;20447;-87
2023/01/12 09:10:22;;;;;;;9.03;2.77;;;12.10;63.20;;;;;;5072614;28;21416;-87
2023/01/12 09:12:48;;;;;;;4.70;2.00;;;12.20;63.20;;;;;;5085131;27;20447;-87
2023/01/12 09:15:17;;;;;;;5.93;2.30;;;12.10;63.00;;;;;;5047112;28;20446;-87
2023/01/12 09:17:44;;;;;;;8.33;1.93;;;12.20;63.40;;;;;;5054033;28;20439;-87
2023/01/12 09:20:11;;;;;;;14.17;3.00;;;12.00;63.60;;;;;;5104302;27;20818;-88
2023/01/12 09:22:38;;;;;;;4.80;1.70;;;12.10;63.20;;;;;;5089657;28;20453;-86
2023/01/12 09:25:06;;;;;;;11.83;5.27;;;12.10;63.10;;;;;;5056121;28;20524;-87
2023/01/12 09:27:32;;;;;;;3.67;1.63;;;12.10;62.60;;;;;;5063199;28;20439;-88
2023/01/12 09:29:59;;;;;;;9.13;7.33;;;12.30;63.70;;;;;;5053193;28;20983;-88
2023/01/12 09:32:28;;;;;;;3.73;1.43;;;12.40;63.80;;;;;;5088573;28;20447;-87
2023/01/12 09:34:55;;;;;;;10.73;3.33;;;12.10;63.40;;;;;;5079729;28;20453;-87
2023/01/12 09:37:21;;;;;;;6.73;4.50;;;11.90;63.00;;;;;;5073241;28;20454;-88
2023/01/12 09:39:48;;;;;;;3.50;1.33;;;11.90;63.90;;;;;;5069871;28;20474;-88
2023/01/12 09:48:06;;;;;;;3.97;2.43;;;11.90;65.00;;;;;;5074378;28;20442;-86
2023/01/12 09:50:36;;;;;;;5.43;1.93;;;12.00;63.00;;;;;;5073491;28;20991;-87
2023/01/12 09:53:07;;;;;;;2.40;1.67;;;12.10;63.90;;;;;;5090239;27;20446;-87
2023/01/12 09:55:41;;;;;;;7.40;4.30;;;12.10;63.00;;;;;;5072044;28;20461;-88
2023/01/12 09:58:30;;;;;;;6.80;3.30;;;12.00;63.20;;;;;;5054500;28;20446;-86
2023/01/12 10:00:59;;;;;;;7.60;2.70;;;11.90;64.50;;;;;;5067964;28;21004;-88
2023/01/12 10:03:30;;;;;;;3.10;2.00;;;11.80;64.30;;;;;;5069972;28;20928;-88
2023/01/12 10:06:00;;;;;;;5.83;1.70;;;11.90;64.60;;;;;;5086830;27;20475;-88
2023/01/12 10:08:32;;;;;;;5.33;2.47;;;12.00;63.90;;;;;;5070206;28;20463;-86
2023/01/12 10:11:08;;;;;;;6.27;1.63;;;12.10;64.10;;;;;;5099267;27;20628;-86
2023/01/12 10:14:09;;;;;;;4.17;1.70;;;12.10;64.00;;;;;;5054056;28;20533;-87
2023/01/12 10:16:46;;;;;;;4.33;1.77;;;12.50;63.20;;;;;;5054912;28;20531;-86
2023/01/12 10:19:22;;;;;;;8.50;3.80;;;12.40;63.00;;;;;;5065764;28;20462;-87
2023/01/12 10:21:52;;;;;;;3.90;1.97;;;12.60;62.20;;;;;;5071052;28;20450;-88
2023/01/12 10:24:21;;;;;;;6.27;3.03;;;12.50;62.30;;;;;;5054328;28;20508;-87
2023/01/12 10:26:55;;;;;;;4.63;1.77;;;12.50;62.00;;;;;;5070018;28;20446;-88
2023/01/12 10:29:22;;;;;;;6.17;3.60;;;12.10;63.40;;;;;;5070425;28;20489;-88
2023/01/12 10:31:50;;;;;;;3.53;1.47;;;12.20;62.90;;;;;;5056918;28;20811;-88
2023/01/12 10:34:18;;;;;;;2.17;1.93;;;12.20;62.30;;;;;;5072556;27;20434;-88
2023/01/12 10:36:48;;;;;;;4.17;1.40;;;12.40;62.70;;;;;;5087399;27;20495;-88
2023/01/12 10:39:31;;;;;;;4.33;1.57;;;12.50;62.60;;;;;;5052549;28;20487;-88
2023/01/12 10:45:16;;;;;;;5.30;1.60;;;12.80;61.50;;;;;;5027393;28;20465;-87
2023/01/12 10:47:45;;;;;;;3.00;1.27;;;12.90;60.90;;;;;;5083909;28;20538;-86
2023/01/12 10:50:26;;;;;;;2.83;1.47;;;12.70;60.30;;;;;;5070297;28;20471;-88
2023/01/12 10:52:59;;;;;;;3.30;2.40;;;12.60;61.00;;;;;;5104541;27;20435;-88
2023/01/12 10:55:30;;;;;;;3.73;2.60;;;12.60;62.10;;;;;;5050333;28;20448;-87
2023/01/12 10:57:57;;;;;;;6.23;2.47;;;12.70;61.50;;;;;;5067510;28;20940;-87
2023/01/12 11:00:27;;;;;;;8.60;1.87;;;12.80;60.90;;;;;;5069974;28;20537;-85
2023/01/12 11:02:54;;;;;;;6.47;1.77;;;12.80;60.40;;;;;;5084684;28;20459;-86
2023/01/12 11:05:34;;;;;;;5.60;1.70;;;12.90;60.60;;;;;;5086775;28;20547;-87
2023/01/12 11:08:01;;;;;;;2.17;1.53;;;12.90;60.50;;;;;;5050777;28;20454;-88
2023/01/12 11:10:30;;;;;;;5.90;2.47;;;12.70;60.00;;;;;;5063807;28;20491;-86
2023/01/12 11:12:59;;;;;;;2.63;1.10;;;12.70;60.40;;;;;;5066557;28;20451;-87
2023/01/12 11:15:28;;;;;;;5.10;1.67;;;12.80;60.70;;;;;;5087607;28;20485;-87
2023/01/12 11:18:17;;;;;;;2.03;1.13;;;12.70;60.00;;;;;;5055191;28;20447;-86
2023/01/12 11:20:50;;;;;;;3.50;1.10;;;12.70;60.30;;;;;;5066905;28;20459;-86
2023/01/12 11:23:24;;;;;;;1.53;1.10;;;12.60;60.20;;;;;;5057118;28;20458;-86
2023/01/12 11:25:53;;;;;;;3.20;1.63;;;12.60;60.20;;;;;;5052284;28;20532;-84
2023/01/12 11:28:24;;;;;;;7.37;1.87;;;12.60;60.50;;;;;;5060299;28;20461;-88
2023/01/12 11:30:56;;;;;;;2.33;1.07;;;12.60;60.60;;;;;;5066227;28;21550;-86
2023/01/12 11:33:28;;;;;;;4.83;1.50;;;12.50;60.50;;;;;;5063243;28;20459;-87
2023/01/12 11:36:02;;;;;;;4.80;1.27;;;12.60;60.40;;;;;;5075082;28;20858;-87
2023/01/12 11:38:35;;;;;;;5.03;2.00;;;12.70;59.90;;;;;;5052611;28;20451;-88
2023/01/12 11:41:05;;;;;;;4.70;1.63;;;12.90;59.90;;;;;;5051862;28;20474;-87
2023/01/12 11:43:51;;;;;;;2.17;1.20;;;13.00;59.80;;;;;;5055655;28;20462;-88
2023/01/12 11:46:23;;;;;;;2.40;1.60;;;12.80;59.40;;;;;;5055617;28;20829;-87
2023/01/12 11:48:57;;;;;;;10.63;3.83;;;12.90;59.70;;;;;;5055569;28;20520;-87
2023/01/12 11:51:25;;;;;;;3.20;1.60;;;12.90;59.20;;;;;;5065182;28;20444;-87
2023/01/12 11:53:52;;;;;;;20.23;6.27;;;12.70;59.20;;;;;;5084275;28;20466;-86
2023/01/12 11:56:43;;;;;;;3.80;1.77;;;12.70;59.60;;;;;;5064834;28;20431;-86
2023/01/12 11:59:17;;;;;;;17.63;7.60;;;12.80;60.20;;;;;;5053304;28;20502;-87
2023/01/12 12:01:53;;;;;;;11.97;5.80;;;12.80;59.80;;;;;;5079724;28;20453;-87
2023/01/12 12:04:30;;;;;;;3.47;1.00;;;12.90;59.30;;;;;;5083893;28;20469;-87
2023/01/12 12:07:17;;;;;;;6.73;3.50;;;12.70;59.20;;;;;;5067469;28;20446;-87
2023/01/12 12:10:04;;;;;;;9.23;4.17;;;12.80;59.60;;;;;;5069054;28;20494;-86
2023/01/12 12:12:42;;;;;;;13.30;6.10;;;12.80;59.50;;;;;;5052928;28;20454;-87
2023/01/12 12:15:22;;;;;;;7.60;2.63;;;12.90;59.80;;;;;;5072428;28;20962;-87
2023/01/12 12:18:00;;;;;;;4.37;2.40;;;13.10;59.10;;;;;;5078750;28;20454;-87
2023/01/12 12:20:35;;;;;;;9.30;2.40;;;13.10;58.90;;;;;;5052349;28;20478;-87
2023/01/12 12:23:21;;;;;;;5.07;2.67;;;13.10;59.00;;;;;;5080754;28;20442;-87
2023/01/12 12:25:56;;;;;;;2.10;1.90;;;13.10;59.10;;;;;;5070658;28;20821;-88
2023/01/12 12:28:50;;;;;;;3.33;1.40;;;13.20;58.70;;;;;;5057367;28;20439;-85
2023/01/12 12:31:36;;;;;;;3.00;2.17;;;13.30;58.50;;;;;;5106663;28;20449;-86
2023/01/12 12:34:22;;;;;;;5.70;4.20;;;13.40;58.40;;;;;;5063901;27;20502;-87
2023/01/12 12:36:58;;;;;;;4.43;2.00;;;13.50;58.90;;;;;;5088431;28;20550;-87
2023/01/12 12:39:51;;;;;;;2.90;2.00;;;13.50;58.30;;;;;;5108257;27;20838;-86
2023/01/12 12:45:21;;;;;;;5.90;3.03;;;13.60;58.60;;;;;;5055962;28;20527;-88
2023/01/12 12:48:03;;;;;;;8.80;3.07;;;13.60;58.20;;;;;;5068581;27;20435;-87
2023/01/12 12:50:34;;;;;;;5.07;1.23;;;13.70;58.20;;;;;;5047146;28;20470;-88
2023/01/12 12:53:15;;;;;;;3.80;2.83;;;13.60;57.90;;;;;;5066342;27;20449;-88
2023/01/12 12:55:44;;;;;;;8.70;3.37;;;13.60;58.50;;;;;;5073703;28;20496;-87
2023/01/12 12:58:30;;;;;;;4.73;2.20;;;13.70;58.30;;;;;;5082756;27;20454;-88
2023/01/12 13:01:44;;;;;;;3.13;2.03;;;13.80;58.30;;;;;;5060993;28;20466;-85
2023/01/12 13:04:13;;;;;;;3.03;1.80;;;13.40;58.20;;;;;;5050227;28;20470;-88
2023/01/12 13:06:44;;;;;;;5.83;2.93;;;13.50;58.60;;;;;;5053449;28;20477;-88
2023/01/12 13:09:35;;;;;;;3.20;2.83;;;13.60;57.70;;;;;;5087190;27;20470;-87
2023/01/12 13:12:21;;;;;;;3.70;2.03;;;13.80;57.80;;;;;;5070040;28;20455;-87
2023/01/12 13:15:23;;;;;;;3.17;1.23;;;13.90;57.50;;;;;;5059081;28;20543;-85
2023/01/12 13:17:52;;;;;;;2.67;2.00;;;13.70;57.50;;;;;;5068699;28;20480;-87
2023/01/12 13:20:52;;;;;;;5.17;1.70;;;13.40;58.50;;;;;;5051608;28;20549;-88
2023/01/12 13:23:42;;;;;;;1.73;1.27;;;13.50;58.90;;;;;;5073000;28;20455;-88
2023/01/12 13:26:24;;;;;;;3.53;1.27;;;13.60;58.50;;;;;;5050121;28;20960;-87
2023/01/12 13:29:24;;;;;;;9.20;4.40;;;13.50;58.80;;;;;;5052940;27;20439;-88
2023/01/12 13:31:53;;;;;;;4.20;1.83;;;13.50;58.60;;;;;;5085391;27;20455;-87
2023/01/12 13:34:40;;;;;;;4.43;1.40;;;13.40;59.20;;;;;;5091224;28;20466;-88
2023/01/12 13:37:19;;;;;;;2.83;1.83;;;13.60;58.60;;;;;;5054254;28;20466;-87
2023/01/12 13:39:55;;;;;;;4.30;1.87;;;13.60;59.00;;;;;;5063285;28;20479;-86
2023/01/12 13:45:10;;;;;;;3.23;1.97;;;13.50;58.80;;;;;;5051743;28;20549;-87
2023/01/12 13:47:38;;;;;;;2.07;1.17;;;13.60;58.40;;;;;;5100339;28;20439;-87
2023/01/12 13:50:05;;;;;;;3.00;1.60;;;13.40;58.50;;;;;;5054061;28;20481;-88
2023/01/12 13:52:36;;;;;;;6.07;1.53;;;13.20;59.70;;;;;;5070311;28;20512;-87
2023/01/12 13:55:17;;;;;;;2.23;1.40;;;13.10;60.20;;;;;;5051436;28;22059;-88